Abingdon, Illinois
Current Conditions -  °F | °C
As of 9:35 AM on Friday 28 Nov 2014 (Local Time) from KGBG Reporting Station
Clear Clear  
Wind Chill: 13°   Ceiling: Unl
Heat Index: 24°   Visibility: 10mi
Dew Point: 19°   Wind: 12mph
Humidity: 82%   Direction: 140°SE
Pressure: 30.11"   Gusts: 21mph
Location:  40.8°N, 90.4°W
Report Text: KGBG 281535Z AUTO 14010G18KT 10SM CLR M04/M07 A3011 RMK AO2 T10441071
Loading
Personal Weather Stations






























Interactive Weather Map New forecast layout! Learn more

10-Day Weather Forecast

Advertisements
Track Severe Weather on mobile